Tiempo atmosférico en la estación meteorológica de Calamocha, Teruel (890 m.)



Fecha
DESCASC
Temp. máxima en grados centígrados (hora)
DESCASC
Temp. mínima en grados centígrados (hora)
DESCASC
Temp. media en grados centígrados
DESCASC
Racha de viento máxima en m/sg (hora)
DESCASC
Velocidad máxima media en intervalos de 10 minutos(hora)
DESCASC
Precipitaciones diarias en mm
DESCASC
Precipitaciones de 00:00 a 06:00 en mm
DESCASC
Precipitaciones de 06:00 a 12:00 en mm
DESCASC
Precipitaciones de 12:00 a 18:00 en mm
DESCASC
Precipitaciones de 18:00 a 24:00 en mm
DESCASC
20-09-2020 22.8 (17:10) 12.7 (04:00) 17.7 9.17 (11:50) 4.72 (13:00) 0 0 0 0 0
19-09-2020 21.8 (14:50) 12.4 (02:10) 17.1 11.39 (19:50) 6.11 (15:10) 0.2 0.2 0 0 0
17-09-2020 27.4 (14:30) 16.6 (00:00) 22 11.39 (14:10) 5.56 (13:50) 0 0 0 0 0
16-09-2020 30.1 (17:00) 13.4 (07:40) 21.8 11.11 (17:20) 8.06 (17:20) 0 0 0 0 0
15-09-2020 29.1 (17:00) 15.6 (00:00) 22.4 8.89 (17:30) 6.39 (17:50) 2 1.8 0.2 0 0
14-09-2020 31 (17:00) 11.5 (00:00) 21.3 9.17 (12:10) 4.44 (12:10) 0 0 0 0 0
13-09-2020 32 (18:00) 11.3 (00:00) 21.7 7.78 (20:00) 5.56 (19:30) 0 0 0 0 0
12-09-2020 30 (16:10) 8.9 (07:20) 19.4 8.33 (19:30) 5.56 (19:20) 0 0 0 0 0
11-09-2020 29.2 (16:50) 7.6 (00:00) 18.4 8.33 (19:00) 5 (19:10) 0 0 0 0 0
10-09-2020 26.4 (15:10) 10.4 (00:00) 18.4 7.78 (18:20) 4.17 (18:20) 0 0 0 0 0
09-09-2020 24.8 (17:50) 8.6 (08:00) 16.7 6.67 (16:30) 4.17 (16:30) 0 0 0 0 0
08-09-2020 23.8 (16:30) 4.3 (00:00) 14 10 (15:20) 5.56 (20:20) 0 0 0 0 0
07-09-2020 21.1 (16:10) 8.1 (08:10) 14.6 11.11 (15:30) 5.83 (16:50) 0 0 0 0 0
06-09-2020 25.7 (16:20) 12 (00:00) 18.9 11.11 (20:50) 5.28 (20:50) 0 0 0 0 0
05-09-2020 30.2 (16:40) 12.5 (00:00) 21.4 9.44 (18:30) 5.83 (19:20) 0 0 0 0 0
04-09-2020 32 (18:50) 12.8 (00:00) 22.4 9.17 (20:10) 6.11 (21:20) 0 0 0 0 0
03-09-2020 30.6 (18:20) 7.1 (00:00) 18.9 8.06 (20:10) 5 (19:20) 0 0 0 0 0
02-09-2020 26 (17:30) 6.5 (00:00) 16.3 6.94 (17:30) 4.17 (20:40) 0 0 0 0 0
01-09-2020 24.2 (17:10) 8.9 (00:00) 16.6 8.06 (23:40) 4.17 (17:30) 0 0 0 0 0
31-08-2020 25.2 (19:10) 3.6 (00:00) 14.4 8.89 (21:40) 5.56 (21:40) 0 0 0 0 0
30-08-2020 19.9 (15:50) 5.1 (00:00) 12.5 10.28 (18:40) 5.28 (18:40) 0 0 0 0 0
29-08-2020 21.1 (15:00) 12.4 (00:00) 16.8 11.11 (19:10) 4.72 (00:30) 0 0 0 0 0
28-08-2020 29.6 (15:40) 13.8 (00:00) 21.7 10 (18:10) 6.11 (16:30) 0 0 0 0 0
27-08-2020 34.3 (16:40) 14.9 (00:00) 24.6 8.06 (20:40) 5.28 (19:10) 0 0 0 0 0
26-08-2020 34.7 (14:40) 14.6 (00:00) 24.7 9.17 (18:50) 5.56 (17:00) 0 0 0 0 0
25-08-2020 34.9 (18:20) 14.2 (00:00) 24.6 10.56 (19:50) 7.22 (19:50) 0 0 0 0 0
24-08-2020 30.6 (16:40) 11.1 (07:20) 20.9 7.5 (18:10) 4.72 (21:40) 0 0 0 0 0

Gráficas

Temp. máximas Temp. mínimas Temp. medias Precipitaciones Rachas de viento máximas Velocidades máximas media en intervalos de 10 minutos

Datos horarios

Fecha y hora oficial Temperatura (ºC) Velocidad del viento (km/h) Dirección del viento Racha (km/h) Dirección de racha Precipitación (mm) Presión (hPa) Tendencia (hPa) Humedad (%)
2020-09-22 23:00:00 15.6 2 Sur 11 Sudeste 0 914.5 1.4 59
2020-09-22 22:00:00 18.1 6 Oeste 17 Oeste 0 914.1 1.3 46
2020-09-22 21:00:00 19 5 Oeste 14 Sudoeste 0 913.8 -- 45
2020-09-22 20:00:00 20.3 7 Oeste 15 Noroeste 0 913.1 -- 40
2020-09-22 19:00:00 22.1 8 Oeste 19 Oeste 0 912.8 -- 35
2020-09-22 18:00:00 22.7 10 Oeste 25 Oeste 0 913 -- 30
2020-09-22 17:00:00 22.8 9 Norte 18 Norte 0 913.3 -- 38
2020-09-22 16:00:00 23.7 10 Oeste 29 Oeste 0 913.7 -- 34
2020-09-22 15:00:00 22.6 8 Noroeste 18 Oeste 0 914.3 -- 40
2020-09-22 14:00:00 22.3 6 Oeste 17 Oeste 0 915 -- 39
2020-09-22 13:00:00 20.8 7 Nordeste 16 Nordeste 0 915.7 -- 52
2020-09-22 12:00:00 18.8 5 Sudeste 11 Sur 0 916.1 -- 60
2020-09-22 11:00:00 15.8 3 Sudoeste 9 Sudoeste 0 916.4 -- 77
2020-09-22 10:00:00 13.4 5 Sur 9 Sudeste 0 916.3 -- 85
2020-09-22 09:00:00 10.4 0 Calma 4 Nordeste 0 916.3 -- 94
2020-09-22 08:00:00 9.3 0 Calma 4 Sudeste 0 916 -- 93
2020-09-22 07:00:00 9.8 0 Calma 4 Sudeste 0 916.1 -- 94
2020-09-22 06:00:00 10 0 Calma 4 Este 0 916 -- 93
2020-09-22 05:00:00 10.8 3 Sur 9 Este 0 916.3 -- 92
2020-09-22 04:00:00 11.5 3 Norte 10 Este 0 916.7 -- 89
2020-09-22 03:00:00 12.3 3 Noroeste 6 Noroeste 0 917.3 -- 89
2020-09-22 02:00:00 13.3 5 Norte 11 Nordeste 0 917.6 -- 85
2020-09-22 01:00:00 13.3 2 Oeste 4 Noroeste 0 917.7 -- 86
2020-09-22 00:00:00 14.3 0 Calma 7 Sur 0 917.6 -- 80
2020-09-21 23:00:00 15.6 2 Noroeste 8 Norte 0 917.6 -- 76
2020-09-21 22:00:00 16.2 7 Nordeste 16 Nordeste 0 917.4 -- 71
2020-09-21 21:00:00 17.2 8 Nordeste 18 Nordeste 0 916.8 -- 67
2020-09-21 20:00:00 19.3 5 Norte 12 Nordeste 0 916.4 -- 57
2020-09-21 19:00:00 20.8 4 Norte 17 Noroeste 0 916.3 -- 52
2020-09-21 18:00:00 22.4 6 Noroeste 22 Oeste 0 916.1 -- 47
2020-09-21 17:00:00 22 10 Noroeste 20 Noroeste 0 916.5 -- 47
2020-09-21 16:00:00 20.4 9 Noroeste 21 Noroeste 0 917.1 -- 55
2020-09-21 15:00:00 19.6 12 Noroeste 24 Noroeste 0 917.4 -- 58
2020-09-21 14:00:00 19.3 12 Noroeste 25 Noroeste 0 917.8 -- 57
2020-09-21 13:00:00 18.6 14 Noroeste 24 Oeste 0 917.9 -- 62
2020-09-21 12:00:00 18 9 Oeste 18 Oeste 0 918 -- 66
2020-09-21 11:00:00 17.2 4 Sudoeste 7 Oeste 0 918.2 -- 77
2020-09-21 10:00:00 15.9 3 Sudeste 6 Sur 0 917.9 -- 83
2020-09-21 09:00:00 12.2 0 Calma 5 Nordeste 0 917.8 -- 95
2020-09-21 08:00:00 11.9 3 Sur 5 Sur 0 917.5 -- 94
2020-09-21 07:00:00 12.4 0 Calma 5 Sudeste 0 917.2 -- 93
2020-09-21 06:00:00 13.3 3 Norte 6 Nordeste 0 917.1 -- 93
2020-09-21 05:00:00 13.8 2 Noroeste 5 Nordeste 0 917 -- 92
2020-09-21 04:00:00 14.4 3 Sudoeste 9 Sudeste 0 917.3 -- 89
2020-09-21 03:00:00 14 3 Sur 7 Sudeste 0 917.8 -- 90
2020-09-21 02:00:00 13.8 4 Nordeste 5 Nordeste 0 917.9 -- 92
2020-09-21 01:00:00 14.2 0 Calma 12 Sudeste 0 918 -- 87
2020-09-21 00:00:00 15.1 10 Este 13 Este 0 917.9 -- 84
2020-09-20 23:00:00 15.9 4 Sudeste 8 Nordeste 0 918.1 -- 84
2020-09-20 22:00:00 16.3 4 Norte 15 Norte 0 917.9 -- 78
2020-09-20 21:00:00 18 8 Norte 18 Oeste 0 917.3 -- 69
2020-09-20 20:00:00 20.1 9 Oeste 21 Noroeste 0 916.5 -- 55
2020-09-20 19:00:00 21.1 11 Oeste 27 Oeste 0 916.1 -- 50
2020-09-20 18:00:00 22.3 13 Oeste 30 Oeste 0 915.8 -- 47
2020-09-20 17:00:00 22.5 13 Oeste 28 Oeste 0 915.9 -- 46
2020-09-20 16:00:00 20.7 13 Oeste 28 Oeste 0 916.4 -- 53
2020-09-20 15:00:00 20 9 Oeste 32 Oeste 0 917 -- 57
2020-09-20 14:00:00 20.1 14 Oeste 31 Oeste 0 917.3 -- 55
2020-09-20 13:00:00 19.2 17 Oeste 30 Sudoeste 0 917.7 -- 58
2020-09-20 12:00:00 18.9 15 Oeste 33 Oeste 0 917.7 -- 61
2020-09-20 11:00:00 18.2 10 Oeste 24 Oeste 0 917.6 -- 68
2020-09-20 10:00:00 16.9 10 Oeste 24 Sudoeste 0 917.4 -- 74
2020-09-20 09:00:00 14.9 6 Este 10 Este 0 917.2 -- 83
2020-09-20 08:00:00 13.5 2 Norte 10 Sudeste 0 917 -- 88
2020-09-20 07:00:00 13.5 5 Sudeste 8 Sudeste 0 917 -- 88
2020-09-20 06:00:00 13.7 2 Noroeste 12 Sur 0 917 -- 85
2020-09-20 05:00:00 13.6 4 Sudeste 9 Sudeste 0 917.2 -- 84
2020-09-20 04:00:00 12.7 5 Sudeste 7 Sudeste 0 917.4 -- 87
2020-09-20 03:00:00 13.9 4 Oeste 14 Oeste 0 917.5 -- 81
2020-09-20 02:00:00 15.1 8 Sudoeste 14 Sudoeste 0 917.6 -- 75
2020-09-20 01:00:00 14.8 4 Sur 15 Sudeste 0 917.6 -- 76
2020-09-20 00:00:00 14.6 4 Sudeste 13 Sudoeste 0 917.6 -- 74
2020-09-19 23:00:00 15.7 5 Sudoeste 22 Oeste 0 917.4 -- 69
2020-09-19 22:00:00 16 7 Oeste 32 Oeste 0 916.8 -- 68
2020-09-19 21:00:00 16.5 13 Sudoeste 35 Oeste 0 916.1 -- 69
2020-09-19 20:00:00 17.5 19 Oeste 41 Oeste 0 915.8 -- 66
2020-09-19 19:00:00 18.6 11 Oeste 33 Oeste 0 915.3 -- 61
2020-09-19 18:00:00 19.6 16 Oeste 39 Oeste 0 915.1 -- 56
2020-09-19 17:00:00 19.9 19 Oeste 33 Oeste 0 914.8 -- 55
2020-09-19 16:00:00 20.2 14 Oeste 33 Sudoeste 0 914.8 -- 49
2020-09-19 15:00:00 21.5 18 Sudoeste 40 Sudoeste 0 914.7 -- 44
2020-09-19 14:00:00 20.7 18 Sudoeste 35 Sudoeste 0 915.5 -- 48
2020-09-19 13:00:00 18.8 14 Sudoeste 27 Sudoeste 0 916 -- 57
2020-09-19 12:00:00 17.4 14 Sudoeste 30 Sudoeste 0 916.2 -- 62
2020-09-19 11:00:00 17.2 10 Sudoeste 28 Oeste 0 916 -- 66
2020-09-19 10:00:00 15.8 4 Sur 17 Sur 0 915.8 -- 81
2020-09-19 09:00:00 13.8 11 Sudeste 16 Sur 0 915.1 -- 88
2020-09-19 08:00:00 12.6 6 Sur 12 Sur 0 914.8 -- 91
2020-09-19 07:00:00 12.7 3 Sur 10 Sudeste 0 914.7 -- 93
2020-09-19 06:00:00 13.1 5 Nordeste 9 Sudoeste 0 914.7 -- 94
2020-09-19 05:00:00 13.9 5 Sudoeste 11 Sudoeste 0.2 914.7 -- 91
2020-09-19 04:00:00 13.5 7 Sur 12 Sudeste 0 915.4 -- 94
2020-09-19 03:00:00 12.9 5 Sudeste 8 Sudeste 0 915.5 -- 93
2020-09-19 02:00:00 12.5 8 Sudeste 10 Sur 0 915.7 -- 92
2020-09-19 01:00:00 13.1 7 Sudoeste 15 Sudoeste 0 915.7 -- 89
2020-09-19 00:00:00 13.1 3 Este 13 Sudeste 0 916 -- 92
2020-09-18 23:00:00 13.9 4 Sur 11 Sudeste 0 915.9 -- 89
2020-09-18 22:00:00 14.3 6 Sudeste 38 Sudoeste 6.4 915.8 -- 89
2020-09-18 21:00:00 15.9 9 Sudoeste 20 Sur 5.4 916.5 -- 90
2020-09-18 20:00:00 15.8 2 Nordeste 7 Sur 0 914.9 -- 89
2020-09-18 19:00:00 16 2 Sudeste 15 Sudeste 0 914 -- 86
2020-09-18 18:00:00 15.8 12 Sudeste 15 Sudeste 1.6 914.7 -- 84
2020-09-18 17:00:00 16.1 6 Sur 14 Sudeste 0.8 914.8 -- 77
2020-09-18 16:00:00 15.1 9 Nordeste 57 Oeste 0.8 915.3 -- 81
2020-09-18 15:00:00 21.1 17 Sur 38 Sur 0 914.9 -- 59
2020-09-18 14:00:00 22.4 17 Sur 40 Sur 0 915 -- 53
2020-09-18 13:00:00 21.7 14 Sur 36 Sur 0 915.3 -- 54
2020-09-18 12:00:00 19.8 11 Sur 25 Sur 0 915.9 -- 59
2020-09-18 11:00:00 18.1 6 Sur 23 Sur 0 915.7 -- 64
2020-09-18 10:00:00 18 12 Sur 34 Sudeste 0 915.1 -- 68
2020-09-18 09:00:00 18.1 15 Sur 39 Sur 0 914.2 -- 69
2020-09-18 08:00:00 18.5 15 Sur 34 Sur 0 914.6 -- 72
2020-09-18 07:00:00 18.3 13 Sur 26 Sur 0 914.3 -- 77
2020-09-18 06:00:00 18.2 10 Sur 25 Sur 0 914.5 -- 78
2020-09-18 05:00:00 17.4 6 Sur 14 Sur 0 914.3 -- 79
2020-09-18 04:00:00 17.9 7 Sudoeste 19 Sudoeste 0 915.2 -- 77
2020-09-18 03:00:00 18 6 Sudoeste 14 Sudeste 0 915.1 -- 79
2020-09-18 02:00:00 18.1 6 Sur 16 Sur 0 915.3 -- 81
2020-09-18 01:00:00 18.7 8 Sur 35 Sur 0.4 916.1 -- 80
2020-09-18 00:00:00 20.1 5 Sur 15 Sudeste 0 916.5 -- 63
2020-09-17 23:00:00 21 14 Sudeste 22 Sudeste 0 916 -- 59
2020-09-17 22:00:00 20.7 5 Sudoeste 16 Sudeste 0 915.5 -- 55
2020-09-17 21:00:00 22.1 12 Sudeste 18 Sur 0 915.1 -- 50
2020-09-17 20:00:00 23.6 10 Sur 24 Sur 0 914.9 -- 47
2020-09-17 19:00:00 24.9 11 Sur 29 Sudoeste 0 914.8 -- 44
2020-09-17 18:00:00 25.4 13 Sur 33 Sur 0 915 -- 41
2020-09-17 17:00:00 26 14 Sudoeste 39 Sur 0 915.2 -- 37
2020-09-17 16:00:00 26.3 18 Sur 39 Sur 0 915.5 -- 37
2020-09-17 15:00:00 26 17 Sur 41 Sudoeste 0 915.7 -- 35
2020-09-17 14:00:00 26 17 Sudoeste 39 Sudoeste 0 916.1 -- 33
2020-09-17 13:00:00 25.7 16 Sudoeste 39 Sur 0 916.7 -- 35
2020-09-17 12:00:00 24.1 15 Sur 34 Sur 0 917.2 -- 44
2020-09-17 11:00:00 21.6 4 Sur 8 Sur 0 917.2 -- 51
2020-09-17 10:00:00 18.8 2 Norte 8 Sur 0 917.3 -- 63
2020-09-17 09:00:00 18.1 4 Sur 12 Sudeste 0 917.2 -- 61
2020-09-17 08:00:00 17.6 8 Este 14 Sudeste 0 917.2 -- 61
2020-09-17 07:00:00 16.8 3 Sur 10 Este 0 917.1 -- 67
2020-09-17 06:00:00 16.8 5 Sur 8 Sudeste 0 917.4 -- 68
2020-09-17 05:00:00 17.3 4 Sur 8 Sudoeste 0 917.3 -- 67
2020-09-17 04:00:00 17.5 6 Sur 12 Sudeste 0 917.8 -- 66
2020-09-17 03:00:00 16.6 5 Sur 9 Sudeste 0 918.3 -- 69
2020-09-17 02:00:00 17.6 5 Sudeste 9 Sudeste 0 918.5 -- 65
2020-09-17 01:00:00 18.6 8 Sudeste 10 Sudeste 0 918.8 -- 62
2020-09-17 00:00:00 20.1 5 Sudeste 14 Sudeste 0 918.8 -- 57
2020-09-16 23:00:00 21.3 12 Sudeste 20 Este 0 918.7 -- 57
2020-09-16 22:00:00 22.3 12 Este 21 Sudeste 0 918.2 -- 53
2020-09-16 21:00:00 23.5 12 Este 20 Este 0 917.9 -- 48
2020-09-16 20:00:00 24.6 16 Este 35 Sudeste 0 917.4 -- 45
2020-09-16 19:00:00 25.4 20 Este 32 Este 0 917.3 -- 42
2020-09-16 18:00:00 25.9 22 Este 40 Sudeste 0 917.5 -- 41
2020-09-16 17:00:00 28.9 17 Nordeste 32 Nordeste 0 917.4 -- 32
2020-09-16 16:00:00 28.2 5 Sudoeste 19 Sur 0 918 -- 34
2020-09-16 15:00:00 29.1 6 Oeste 22 Este 0 918.4 -- 31
2020-09-16 14:00:00 28.8 5 Sudoeste 14 Oeste 0 919.1 -- 35
2020-09-16 13:00:00 27.1 3 Este 14 Sudoeste 0 919.8 -- 39
2020-09-16 12:00:00 24 5 Oeste 8 Oeste 0 920.5 -- 51
2020-09-16 11:00:00 21.2 5 Sur 10 Sudoeste 0 920.9 -- 63
2020-09-16 10:00:00 18.1 3 Sur 10 Sudeste 0 921.2 -- 75
2020-09-16 09:00:00 15.5 5 Sur 8 Sur 0 921.3 -- 85
2020-09-16 08:00:00 14 4 Sur 7 Sudeste 0 921 -- 90
2020-09-16 07:00:00 13.6 0 Calma 9 Sudeste 0 920.9 -- 89
2020-09-16 06:00:00 13.8 4 Sudeste 5 Sudeste 0 920.9 -- 89
2020-09-16 05:00:00 14.4 2 Sudoeste 10 Sudeste 0 921.1 -- 86
2020-09-16 04:00:00 15.2 8 Sudeste 10 Sudeste 0 921.1 -- 84
2020-09-16 03:00:00 14.9 2 Sudeste 6 Sudeste 0 921.2 -- 84
2020-09-16 02:00:00 16.1 2 Sudeste 8 Sudeste 0 921.5 -- 78
2020-09-16 01:00:00 16.2 2 Este 5 Nordeste 0 921.6 -- 78
2020-09-16 00:00:00 18 0 Calma 9 Este 0 921.4 -- 72
2020-09-15 23:00:00 20.5 6 Sudeste 11 Sudeste 0 921.1 -- 59
2020-09-15 22:00:00 21.5 3 Sur 22 Este 0 920.7 -- 56
2020-09-15 21:00:00 22.5 16 Este 25 Este 0 920.2 -- 51
2020-09-15 20:00:00 24.8 16 Este 25 Nordeste 0 919.6 -- 43
2020-09-15 19:00:00 27.4 9 Sudeste 26 Sudeste 0 919.5 -- 37
2020-09-15 18:00:00 27.1 20 Sudeste 32 Sudeste 0 919.6 -- 36
2020-09-15 17:00:00 28.7 12 Sur 31 Sudeste 0 919.8 -- 33
2020-09-15 16:00:00 28.3 5 Sudoeste 17 Sudoeste 0 920.2 -- 37
2020-09-15 15:00:00 27.1 6 Sudeste 16 Sur 0 921 -- 41
2020-09-15 14:00:00 26.2 6 Sudeste 11 Sudeste 0 921.7 -- 40
2020-09-15 13:00:00 24.1 3 Oeste 12 Noroeste 0 922.3 -- 55
2020-09-15 12:00:00 21.6 6 Oeste 10 Oeste 0 922.8 -- 62
2020-09-15 11:00:00 18.1 4 Nordeste 8 Nordeste 0 923.3 -- 79
2020-09-15 10:00:00 16.6 4 Este 8 Este 0 923.1 -- 86
2020-09-15 09:00:00 16.2 5 Sudoeste 12 Sudoeste 0 922.3 -- 86
2020-09-15 08:00:00 15.6 8 Sudeste 14 Sudeste 0 922.4 -- 84
2020-09-15 07:00:00 15.8 5 Sudeste 14 Este 0.2 922.2 -- 85
2020-09-15 06:00:00 15.9 2 Sur 14 Sudeste 0 921.9 -- 84
2020-09-15 05:00:00 16 7 Sudeste 13 Sudeste 0 921.9 -- 86
2020-09-15 04:00:00 16.8 3 Sur 19 Este 0 921.8 -- 81
2020-09-15 03:00:00 17.2 14 Este 26 Este 0.8 922.1 -- 81
2020-09-15 02:00:00 18.5 7 Sudeste 30 Sudoeste 0.6 923.3 -- 76
2020-09-15 01:00:00 20.7 12 Sur 25 Sur 0.4 923 -- 58
2020-09-15 00:00:00 21.9 14 Sur 25 Sudoeste 0 922 -- 47
2020-09-14 23:00:00 23 11 Sur 23 Sur 0 921.7 -- 40
2020-09-14 22:00:00 23.5 5 Sudoeste 27 Sudoeste 0 921.8 -- 42
2020-09-14 21:00:00 25.2 9 Sur 22 Sudoeste 0 921 -- 36
2020-09-14 20:00:00 27.1 10 Sur 23 Sudeste 0 920 -- 30
2020-09-14 19:00:00 28.6 10 Sur 22 Sur 0 920.1 -- 26
2020-09-14 18:00:00 30 10 Sudeste 32 Sur 0 920.3 -- 21
2020-09-14 17:00:00 30.5 12 Sudeste 22 Sur 0 920.9 -- 20
2020-09-14 16:00:00 29.5 14 Sur 30 Sudeste 0 921.7 -- 23
2020-09-14 15:00:00 28.8 11 Sur 29 Sudeste 0 922.2 -- 24
2020-09-14 14:00:00 29.1 13 Sudoeste 31 Sudoeste 0 922.6 -- 26
2020-09-14 13:00:00 27.9 11 Sur 33 Sudoeste 0 923 -- 29
2020-09-14 12:00:00 25.3 14 Sudoeste 28 Sudoeste 0 923.5 -- 36
2020-09-14 11:00:00 21.9 3 Sudoeste 10 Sudoeste 0 923.8 -- 49
2020-09-14 10:00:00 18.5 5 Sudoeste 9 Sur 0 923.9 -- 56
2020-09-14 09:00:00 14.9 6 Sur 12 Sudeste 0 923.9 -- 68
2020-09-14 08:00:00 11.5 0 Calma 5 Sudoeste 0 923.6 -- 76
2020-09-14 07:00:00 12.7 3 Sudeste 10 Sudeste 0 923.4 -- 74
2020-09-14 06:00:00 13.3 4 Sur 10 Sudeste 0 923.5 -- 73
2020-09-14 05:00:00 14.5 7 Sudeste 12 Sudeste 0 923.6 -- 66
2020-09-14 04:00:00 15.3 9 Sudeste 12 Sudeste 0 923.8 -- 64
2020-09-14 03:00:00 16.5 10 Sudeste 13 Sudeste 0 924 -- 60
2020-09-14 02:00:00 17.2 9 Sudeste 12 Sudeste 0 924.2 -- 57
2020-09-14 01:00:00 18.9 6 Sudeste 13 Sudeste 0 924.3 -- 51
2020-09-14 00:00:00 21 6 Sur 22 Sur 0 924.1 -- 46
2020-09-13 23:00:00 22.1 11 Sur 22 Sur 0 924 -- 44
2020-09-13 22:00:00 23.2 5 Sudeste 21 Sudeste 0 923.5 -- 41
2020-09-13 21:00:00 24.9 16 Sudeste 27 Este 0 922.4 -- 36
2020-09-13 20:00:00 27.2 20 Este 28 Este 0 921.6 -- 29
2020-09-13 19:00:00 30 10 Este 18 Este 0 921.4 -- 20
2020-09-13 18:00:00 31.9 6 Sur 17 Sudeste 0 921.5 -- 15
2020-09-13 17:00:00 31.4 9 Sudeste 20 Sudeste 0 921.9 -- 15
2020-09-13 16:00:00 31.3 7 Sudoeste 26 Este 0 922 -- 18
2020-09-13 15:00:00 29.9 7 Este 19 Este 0 922.5 -- 21
2020-09-13 14:00:00 29.8 7 Noroeste 13 Norte 0 923 -- 23
2020-09-13 13:00:00 28.2 7 Sudoeste 20 Sudoeste 0 923.5 -- 26
2020-09-13 12:00:00 25.2 4 Nordeste 9 Sudoeste 0 924 -- 40
2020-09-13 11:00:00 21.3 2 Noroeste 9 Sudoeste 0 924 -- 52
2020-09-13 10:00:00 17.8 4 Sudoeste 8 Sudoeste 0 923.8 -- 62
2020-09-13 09:00:00 14.4 4 Sur 8 Sudeste 0 923.7 -- 72
2020-09-13 08:00:00 11.5 5 Sur 9 Sur 0 923.2 -- 81
2020-09-13 07:00:00 11.6 3 Sudoeste 8 Sur 0 922.9 -- 80
2020-09-13 06:00:00 12.9 4 Sudeste 9 Sudeste 0 922.5 -- 78
2020-09-13 05:00:00 14 4 Sudoeste 14 Sudeste 0 922.5 -- 75
2020-09-13 04:00:00 13.6 2 Sudoeste 9 Sudoeste 0 922.4 -- 78
2020-09-13 03:00:00 14.5 3 Oeste 7 Este 0 922.7 -- 75
2020-09-13 02:00:00 17 2 Sudeste 9 Sudeste 0 922.8 -- 66
2020-09-13 01:00:00 17.9 5 Sur 10 Sur 0 922.7 -- 59
2020-09-13 00:00:00 18.5 5 Sur 11 Sudeste 0 922.3 -- 54
2020-09-12 23:00:00 19.6 3 Sur 6 Sudeste 0 921.8 -- 53
2020-09-12 22:00:00 22 4 Nordeste 16 Nordeste 0 921.1 -- 47
2020-09-12 21:00:00 23.8 9 Este 24 Nordeste 0 920.3 -- 42
2020-09-12 20:00:00 25.6 12 Nordeste 30 Este 0 919.6 -- 38
2020-09-12 19:00:00 27.5 14 Nordeste 26 Este 0 918.9 -- 34
2020-09-12 18:00:00 28.2 13 Nordeste 27 Nordeste 0 918.6 -- 32
2020-09-12 17:00:00 28.8 8 Norte 21 Norte 0 918.5 -- 31
2020-09-12 16:00:00 29.8 6 Sudoeste 13 Nordeste 0 918.7 -- 25
2020-09-12 15:00:00 29 6 Oeste 13 Noroeste 0 919.1 -- 28
2020-09-12 14:00:00 27.9 6 Oeste 11 Oeste 0 919.5 -- 33
2020-09-12 13:00:00 25.8 6 Oeste 12 Oeste 0 919.8 -- 37
2020-09-12 12:00:00 23.5 5 Noroeste 12 Noroeste 0 920 -- 44
2020-09-12 11:00:00 19.1 4 Noroeste 7 Noroeste 0 920.3 -- 56
2020-09-12 10:00:00 14.8 2 Noroeste 5 Noroeste 0 920.1 -- 65
2020-09-12 09:00:00 10.9 0 Calma 4 Sur 0 919.9 -- 77
2020-09-12 08:00:00 9.2 4 Sur 9 Sudeste 0 919.2 -- 81
2020-09-12 07:00:00 9.3 2 Noroeste 5 Sur 0 918.5 -- 82
2020-09-12 06:00:00 9.8 0 Calma 4 Este 0 918.3 -- 78
2020-09-12 05:00:00 10.3 2 Noroeste 6 Noroeste 0 918.4 -- 78
2020-09-12 04:00:00 11.6 5 Sur 9 Sudeste 0 918.3 -- 74
2020-09-12 03:00:00 12.4 0 Calma 7 Noroeste 0 918 -- 70
2020-09-12 02:00:00 13.4 4 Nordeste 6 Nordeste 0 918.1 -- 64
2020-09-12 01:00:00 14.7 5 Sur 8 Sudeste 0 917.9 -- 60
2020-09-12 00:00:00 15.6 4 Nordeste 10 Nordeste 0 917.7 -- 57
2020-09-11 23:00:00 17.7 5 Nordeste 8 Nordeste 0 917.2 -- 50
2020-09-11 22:00:00 20.1 5 Nordeste 15 Este 0 916.6 -- 45
2020-09-11 21:00:00 22.6 7 Nordeste 22 Nordeste 0 915.7 -- 37
2020-09-11 20:00:00 25.4 14 Nordeste 29 Nordeste 0 915.2 -- 33
2020-09-11 19:00:00 27.4 13 Nordeste 30 Nordeste 0 914.9 -- 27
2020-09-11 18:00:00 28.2 6 Norte 26 Norte 0 914.9 -- 22
2020-09-11 17:00:00 29 5 Norte 18 Norte 0 915.2 -- 21
2020-09-11 16:00:00 28.1 6 Sudeste 24 Este 0 915.4 -- 22
2020-09-11 15:00:00 27.2 9 Norte 18 Oeste 0 915.9 -- 27
2020-09-11 14:00:00 26.6 5 Oeste 22 Norte 0 916.1 -- 29
2020-09-11 13:00:00 25.1 7 Oeste 17 Noroeste 0 916.7 -- 31
2020-09-11 12:00:00 22.2 3 Oeste 12 Sudoeste 0 917.1 -- 38
2020-09-11 11:00:00 19.2 6 Sur 14 Sudeste 0 917.5 -- 47
2020-09-11 10:00:00 14.7 6 Sudoeste 10 Sudoeste 0 917.6 -- 55
2020-09-11 09:00:00 10.6 3 Sur 5 Sur 0 917.7 -- 70
2020-09-11 08:00:00 7.7 3 Sur 9 Sudeste 0 917.5 -- 79
2020-09-11 07:00:00 7.9 0 Calma 4 Oeste 0 917.2 -- 80
2020-09-11 06:00:00 8.9 2 Sudeste 7 Sudeste 0 917.3 -- 75
2020-09-11 05:00:00 9.5 2 Noroeste 10 Sudeste 0 917.2 -- 74
2020-09-11 04:00:00 9.9 6 Sudeste 8 Sudeste 0 917.5 -- 69
2020-09-11 03:00:00 11.4 2 Sudoeste 6 Sudeste 0 917.8 -- 65
2020-09-11 02:00:00 13.1 0 Calma 8 Sudeste 0 918.1 -- 61
2020-09-11 01:00:00 14.6 2 Sur 7 Nordeste 0 918.3 -- 56
2020-09-11 00:00:00 16 3 Oeste 7 Norte 0 918.5 -- 53
2020-09-10 23:00:00 17.2 5 Nordeste 12 Nordeste 0 918.3 -- 47
2020-09-10 22:00:00 19.7 4 Nordeste 19 Nordeste 0 918.1 -- 39
2020-09-10 21:00:00 21.7 11 Nordeste 25 Norte 0 917.6 -- 33
2020-09-10 20:00:00 23.8 9 Norte 21 Nordeste 0 917.2 -- 33
2020-09-10 19:00:00 25.2 10 Norte 28 Norte 0 917.2 -- 32
2020-09-10 18:00:00 26 9 Norte 26 Nordeste 0 917.2 -- 32
2020-09-10 17:00:00 25.7 6 Noroeste 27 Noroeste 0 917.5 -- 34
2020-09-10 16:00:00 25.7 13 Nordeste 23 Norte 0 918 -- 33
2020-09-10 15:00:00 26.2 10 Noroeste 23 Norte 0 918.4 -- 34
2020-09-10 14:00:00 24.9 8 Norte 19 Norte 0 919 -- 36
2020-09-10 13:00:00 23.6 5 Este 13 Noroeste 0 919.6 -- 42
2020-09-10 12:00:00 21.5 6 Norte 13 Norte 0 920.4 -- 48
2020-09-10 11:00:00 19.1 4 Sudoeste 13 Sur 0 920.6 -- 56
2020-09-10 10:00:00 16.4 6 Sur 12 Sudeste 0 920.9 -- 65
2020-09-10 09:00:00 12.4 4 Oeste 6 Noroeste 0 920.4 -- 77
2020-09-10 08:00:00 10.5 5 Sudeste 6 Sudeste 0 920.2 -- 82
2020-09-10 07:00:00 11.6 4 Sur 10 Sudeste 0 920.2 -- 80
2020-09-10 06:00:00 12.6 5 Sudoeste 8 Sudoeste 0 920.2 -- 80
2020-09-10 05:00:00 13.3 3 Sudoeste 9 Norte 0 920.4 -- 78
2020-09-10 04:00:00 14.3 4 Noroeste 12 Nordeste 0 920.6 -- 73
2020-09-10 03:00:00 14.2 2 Oeste 9 Noroeste 0 920.6 -- 64
2020-09-10 02:00:00 15.4 4 Norte 8 Norte 0 920.7 -- 62
2020-09-10 01:00:00 15.5 2 Este 11 Nordeste 0 920.7 -- 59
2020-09-10 00:00:00 16.2 5 Norte 8 Norte 0 921 -- 52
2020-09-09 23:00:00 17 4 Sur 9 Sudeste 0 920.6 -- 50
2020-09-09 22:00:00 18.4 3 Oeste 7 Noroeste 0 920.1 -- 47
2020-09-09 21:00:00 21 2 Oeste 16 Nordeste 0 919.5 -- 39
2020-09-09 20:00:00 22.7 10 Nordeste 20 Nordeste 0 919.5 -- 34
2020-09-09 19:00:00 24.6 7 Norte 22 Este 0 919.3 -- 32
2020-09-09 18:00:00 24.4 6 Norte 21 Oeste 0 919.5 -- 35
2020-09-09 17:00:00 23.4 12 Nordeste 24 Nordeste 0 919.7 -- 38
2020-09-09 16:00:00 23.3 10 Nordeste 21 Nordeste 0 920.1 -- 38
2020-09-09 15:00:00 23.3 12 Nordeste 23 Este 0 920.7 -- 40
2020-09-09 14:00:00 22.1 10 Nordeste 19 Nordeste 0 921.2 -- 43
2020-09-09 13:00:00 21.8 7 Nordeste 14 Nordeste 0 921.7 -- 46
2020-09-09 12:00:00 20.4 5 Noroeste 10 Oeste 0 922.3 -- 51
2020-09-09 11:00:00 17.1 3 Sudoeste 5 Oeste 0 922.6 -- 52
2020-09-09 10:00:00 14.1 0 Calma 6 Nordeste 0 922.5 -- 62
2020-09-09 09:00:00 11.1 2 Oeste 8 Sur 0 922.4 -- 71
2020-09-09 08:00:00 8.6 3 Este 5 Este 0 922.2 -- 80
2020-09-09 07:00:00 9.4 0 Calma 3 Nordeste 0 921.8 -- 75
2020-09-09 06:00:00 10.3 0 Calma 6 Nordeste 0 921.7 -- 72
2020-09-09 05:00:00 10.9 4 Oeste 8 Oeste 0 921.8 -- 73
2020-09-09 04:00:00 12.5 6 Sudeste 10 Sudeste 0 921.7 -- 61
2020-09-09 03:00:00 13.6 0 Calma 8 Nordeste 0 922.2 -- 62
2020-09-09 02:00:00 14.4 0 Calma 6 Este 0 922.4 -- 58
2020-09-09 01:00:00 16.1 2 Norte 11 Este 0 922.6 -- 53
2020-09-09 00:00:00 17.6 7 Sudeste 11 Sur 0 922.8 -- 45
2020-09-08 23:00:00 18 4 Oeste 12 Nordeste 0 922.5 -- 45
2020-09-08 22:00:00 19 9 Este 19 Nordeste 0 922.5 -- 40
2020-09-08 21:00:00 19.8 11 Este 30 Nordeste 0 921.8 -- 37
2020-09-08 20:00:00 21 17 Nordeste 30 Este 0 921.5 -- 34
2020-09-08 19:00:00 22.7 17 Este 29 Este 0 921.5 -- 31
2020-09-08 18:00:00 23.4 16 Este 28 Sudeste 0 921.2 -- 29
2020-09-08 17:00:00 23.4 12 Este 31 Este 0 921.4 -- 27
2020-09-08 16:00:00 23.3 15 Este 36 Sudeste 0 921.6 -- 27
2020-09-08 15:00:00 22.6 16 Este 32 Este 0 921.9 -- 31
2020-09-08 14:00:00 21.6 7 Nordeste 20 Nordeste 0 922.4 -- 36
2020-09-08 13:00:00 19.9 5 Oeste 13 Nordeste 0 923.1 -- 43
2020-09-08 12:00:00 17.2 4 Oeste 9 Norte 0 923.8 -- 50
2020-09-08 11:00:00 13.7 3 Oeste 10 Sudoeste 0 924.1 -- 63
2020-09-08 10:00:00 10.9 4 Sudoeste 7 Sudoeste 0 924.2 -- 67
2020-09-08 09:00:00 7.6 0 Calma 4 Este 0 924.1 -- 77
2020-09-08 08:00:00 4.3 2 Nordeste 4 Noroeste 0 923.6 -- 88
2020-09-08 07:00:00 4.7 2 Sudeste 6 Nordeste 0 923 -- 85
2020-09-08 06:00:00 5.3 0 Calma 7 Sur 0 923.1 -- 84
2020-09-08 05:00:00 6.6 5 Sur 10 Sudeste 0 923 -- 80
2020-09-08 04:00:00 6.6 2 Oeste 5 Sur 0 922.7 -- 80
2020-09-08 03:00:00 7.8 5 Sur 7 Sudeste 0 922.7 -- 74
2020-09-08 02:00:00 9.1 3 Oeste 6 Nordeste 0 922.6 -- 74
2020-09-08 01:00:00 10.3 4 Nordeste 12 Norte 0 922.5 -- 65
2020-09-08 00:00:00 12.2 5 Norte 13 Noroeste 0 922.2 -- 60
2020-09-07 23:00:00 13.1 4 Noroeste 21 Norte 0 922 -- 55
2020-09-07 22:00:00 14.2 5 Norte 22 Noroeste 0 921.6 -- 51
2020-09-07 21:00:00 15.6 9 Norte 30 Nordeste 0 920.6 -- 45
2020-09-07 20:00:00 17.7 15 Nordeste 28 Norte 0 919.8 -- 37
2020-09-07 19:00:00 19.3 15 Norte 32 Nordeste 0 919.6 -- 34
2020-09-07 18:00:00 20.1 16 Norte 36 Norte 0 919.4 -- 33
2020-09-07 17:00:00 20.2 17 Norte 35 Norte 0 919.4 -- 33
2020-09-07 16:00:00 20.8 11 Norte 40 Nordeste 0 919.5 -- 31
2020-09-07 15:00:00 20.4 13 Norte 30 Norte 0 919.5 -- 37
2020-09-07 14:00:00 19.5 10 Norte 36 Nordeste 0 919.8 -- 39
2020-09-07 13:00:00 18.2 12 Norte 37 Nordeste 0 920 -- 43
2020-09-07 12:00:00 16.9 13 Norte 38 Norte 0 920.3 -- 45
2020-09-07 11:00:00 16 12 Noroeste 35 Nordeste 0 920.4 -- 52
2020-09-07 10:00:00 13.8 12 Norte 31 Noroeste 0 920.1 -- 60
2020-09-07 09:00:00 11.2 4 Oeste 6 Noroeste 0 919.9 -- 74
2020-09-07 08:00:00 8.2 0 Calma 5 Norte 0 919.5 -- 84
2020-09-07 07:00:00 8.8 2 Este 7 Noroeste 0 919.1 -- 84
2020-09-07 06:00:00 9.9 4 Noroeste 10 Nordeste 0 919 -- 81
2020-09-07 05:00:00 10.4 4 Noroeste 13 Norte 0 919 -- 79
2020-09-07 04:00:00 10.7 5 Norte 13 Norte 0 919.2 -- 77
2020-09-07 03:00:00 11.3 4 Norte 10 Norte 0 919.3 -- 76
2020-09-07 02:00:00 12 5 Noroeste 16 Norte 0 919.5 -- 74
2020-09-07 01:00:00 12.8 7 Norte 16 Noroeste 0 919.3 -- 72
2020-09-07 00:00:00 14 6 Norte 23 Nordeste 0 918.9 -- 67
2020-09-06 23:00:00 14.9 11 Norte 28 Nordeste 0 918.8 -- 63
2020-09-06 22:00:00 16.3 14 Norte 30 Norte 0 918.5 -- 56
2020-09-06 21:00:00 17.6 15 Nordeste 40 Nordeste 0 917.9 -- 54
2020-09-06 20:00:00 18.7 12 Norte 39 Nordeste 0 917.5 -- 51
2020-09-06 19:00:00 21.6 12 Norte 30 Nordeste 0 916.6 -- 48
2020-09-06 18:00:00 23 17 Norte 39 Nordeste 0 916.6 -- 45
2020-09-06 17:00:00 24.6 10 Norte 28 Noroeste 0 916.9 -- 42
2020-09-06 16:00:00 25.4 11 Norte 23 Nordeste 0 917 -- 40
2020-09-06 15:00:00 24.1 8 Norte 24 Norte 0 917.6 -- 43
2020-09-06 14:00:00 23 8 Noroeste 22 Noroeste 0 918.2 -- 51
2020-09-06 13:00:00 22.9 8 Noroeste 16 Noroeste 0 918.8 -- 50
2020-09-06 12:00:00 20.1 6 Noroeste 14 Noroeste 0 919.3 -- 60
2020-09-06 11:00:00 18.1 5 Noroeste 13 Oeste 0 919.6 -- 69
2020-09-06 10:00:00 15.8 7 Noroeste 12 Norte 0 919.6 -- 78
2020-09-06 09:00:00 13.5 5 Noroeste 9 Noroeste 0 919.8 -- 87
2020-09-06 08:00:00 12 5 Norte 8 Norte 0 919.6 -- 92
2020-09-06 07:00:00 12.3 3 Nordeste 9 Norte 0 919.4 -- 91
2020-09-06 06:00:00 12.8 6 Norte 12 Norte 0 919.5 -- 90
2020-09-06 05:00:00 13.3 5 Norte 12 Norte 0 919.7 -- 89
2020-09-06 04:00:00 13.8 6 Norte 13 Norte 0 919.9 -- 88
2020-09-06 03:00:00 14.6 7 Norte 16 Noroeste 0 920.1 -- 84
2020-09-06 02:00:00 15.2 6 Norte 14 Noroeste 0 920.2 -- 81
2020-09-06 01:00:00 16.1 4 Norte 14 Noroeste 0 920.2 -- 77
2020-09-06 00:00:00 17.2 6 Noroeste 16 Noroeste 0 920.2 -- 72
2020-09-05 23:00:00 18.7 5 Norte 19 Norte 0 920.1 -- 67
2020-09-05 22:00:00 20.6 6 Norte 23 Nordeste 0 919.8 -- 61
2020-09-05 21:00:00 22.9 12 Norte 24 Nordeste 0 919 -- 53
2020-09-05 20:00:00 25.9 14 Nordeste 28 Nordeste 0 918.5 -- 38
2020-09-05 19:00:00 27.7 15 Nordeste 34 Nordeste 0 918.4 -- 35
2020-09-05 18:00:00 28.8 14 Nordeste 31 Este 0 918.5 -- 32
2020-09-05 17:00:00 29.8 9 Este 27 Sudeste 0 918.6 -- 30
2020-09-05 16:00:00 29.6 13 Este 25 Este 0 919.2 -- 28
2020-09-05 15:00:00 29.1 11 Nordeste 24 Nordeste 0 919.7 -- 32
2020-09-05 14:00:00 28.9 8 Noroeste 15 Norte 0 920 -- 31
2020-09-05 13:00:00 26.6 6 Oeste 14 Noroeste 0 920.7 -- 38
2020-09-05 12:00:00 23.8 6 Noroeste 13 Sur 0 921.4 -- 41
2020-09-05 11:00:00 21.5 7 Sur 15 Sur 0 921.8 -- 55
2020-09-05 10:00:00 17.7 4 Sur 10 Sudoeste 0 921.7 -- 65
2020-09-05 09:00:00 15.4 3 Sur 10 Sur 0 921.6 -- 74
2020-09-05 08:00:00 12.7 4 Sur 14 Sudeste 0 921.6 -- 81
2020-09-05 07:00:00 13.8 9 Sudeste 14 Sudeste 0 921.2 -- 80
2020-09-05 06:00:00 14 9 Sudeste 13 Sudeste 0 921.3 -- 80
2020-09-05 05:00:00 14.7 7 Sudeste 11 Sudeste 0 921.5 -- 76
2020-09-05 04:00:00 15.5 8 Sudeste 10 Sudeste 0 921.7 -- 74
2020-09-05 03:00:00 16.4 6 Sudeste 9 Sudeste 0 922 -- 69
2020-09-05 02:00:00 17.1 8 Sudeste 11 Sudeste 0 922.2 -- 66
2020-09-05 01:00:00 18.4 7 Sudeste 11 Sur 0 922.4 -- 59
2020-09-05 00:00:00 20 6 Sur 10 Sur 0 922.4 -- 55
2020-09-04 23:00:00 22.3 5 Sudeste 25 Este 0 922.3 -- 43
2020-09-04 22:00:00 23.7 12 Este 28 Este 0 921.9 -- 38
2020-09-04 21:00:00 25.2 21 Este 33 Este 0 921.1 -- 33
2020-09-04 20:00:00 27.6 22 Este 32 Este 0 920.7 -- 29
2020-09-04 19:00:00 31 8 Este 17 Este 0 920.7 -- 26
2020-09-04 18:00:00 31.8 4 Noroeste 15 Noroeste 0 920.9 -- 19
2020-09-04 17:00:00 31.2 7 Oeste 21 Norte 0 921.4 -- 21
2020-09-04 16:00:00 30.4 4 Norte 19 Oeste 0 922.1 -- 26
2020-09-04 15:00:00 29.7 7 Sur 17 Sur 0 923 -- 25
2020-09-04 14:00:00 28.6 7 Sur 14 Sudoeste 0 923.6 -- 30
2020-09-04 13:00:00 26.1 7 Sudoeste 12 Oeste 0 924.3 -- 33
2020-09-04 12:00:00 23.9 7 Oeste 14 Sudoeste 0 924.8 -- 42
2020-09-04 11:00:00 21.2 4 Sur 12 Sur 0 925 -- 53
2020-09-04 10:00:00 17.9 6 Sur 13 Sudoeste 0 924.9 -- 64
2020-09-04 09:00:00 16.3 6 Sudeste 9 Sudeste 0 924.5 -- 71
2020-09-04 08:00:00 12.8 7 Sudeste 9 Sudeste 0 924.3 -- 86
2020-09-04 07:00:00 14 6 Sudeste 11 Sur 0 923.9 -- 83
2020-09-04 06:00:00 14.5 8 Sudeste 11 Sudeste 0 923.5 -- 82
2020-09-04 05:00:00 15.7 8 Sudeste 13 Sudeste 0 923.4 -- 76
2020-09-04 04:00:00 15.8 2 Sudeste 11 Sudeste 0 923.4 -- 73
2020-09-04 03:00:00 16.8 6 Sudeste 10 Sudeste 0 923.7 -- 69
2020-09-04 02:00:00 17.2 5 Sudeste 10 Sudeste 0 923.8 -- 66
2020-09-04 01:00:00 18.1 6 Sudeste 11 Sudeste 0 923.8 -- 57
2020-09-04 00:00:00 18 3 Oeste 11 Sur 0 923.8 -- 49
2020-09-03 23:00:00 19.9 5 Sudoeste 14 Sudoeste 0 923.4 -- 39
2020-09-03 22:00:00 21.6 2 Noroeste 19 Este 0 922.9 -- 39
2020-09-03 21:00:00 23.8 12 Nordeste 29 Este 0 921.9 -- 34
2020-09-03 20:00:00 26.5 15 Este 26 Este 0 921 -- 29
2020-09-03 19:00:00 29.5 6 Norte 23 Sudeste 0 920.8 -- 26
2020-09-03 18:00:00 30.4 3 Oeste 12 Sudoeste 0 920.7 -- 16
2020-09-03 17:00:00 29.6 6 Sudeste 16 Sudeste 0 920.9 -- 15
2020-09-03 16:00:00 28.1 8 Este 16 Oeste 0 921.2 -- 21
2020-09-03 15:00:00 28 7 Sudoeste 12 Sudoeste 0 921.6 -- 22
2020-09-03 14:00:00 26.1 6 Norte 14 Noroeste 0 922 -- 32
2020-09-03 13:00:00 24.3 5 Noroeste 13 Norte 0 922.3 -- 42
2020-09-03 12:00:00 21.2 4 Oeste 11 Oeste 0 922.5 -- 53
2020-09-03 11:00:00 17.8 4 Sudoeste 12 Sudoeste 0 922.6 -- 69
2020-09-03 10:00:00 15 6 Sudoeste 14 Sur 0 922.4 -- 80
2020-09-03 09:00:00 9.8 0 Calma 6 Este 0 921.9 -- 76
2020-09-03 08:00:00 7.1 0 Calma 6 Sur 0 921.6 -- 81
2020-09-03 07:00:00 7.6 5 Sur 7 Sur 0 921 -- 76
2020-09-03 06:00:00 7.8 0 Calma 5 Sudoeste 0 920.6 -- 77
2020-09-03 05:00:00 8.2 2 Noroeste 6 Sur 0 920.5 -- 77
2020-09-03 04:00:00 8.8 2 Oeste 5 Nordeste 0 920.4 -- 75
2020-09-03 03:00:00 10 3 Sur 9 Noroeste 0 920.7 -- 68
2020-09-03 02:00:00 10.4 3 Norte 6 Nordeste 0 920.7 -- 65
2020-09-03 01:00:00 11.8 0 Calma 4 Nordeste 0 920.6 -- 61
2020-09-03 00:00:00 13.6 2 Sudoeste 5 Sudeste 0 920.4 -- 54
2020-09-02 23:00:00 15.2 0 Calma 7 Norte 0 919.9 -- 47
2020-09-02 22:00:00 17.6 4 Norte 18 Nordeste 0 919.4 -- 40
2020-09-02 21:00:00 20 12 Nordeste 25 Nordeste 0 918.2 -- 34
2020-09-02 20:00:00 22.7 11 Norte 23 Norte 0 917.4 -- 29
2020-09-02 19:00:00 24.4 14 Nordeste 22 Nordeste 0 916.8 -- 26
2020-09-02 18:00:00 25.4 7 Norte 25 Norte 0 916.5 -- 27
2020-09-02 17:00:00 25.4 7 Norte 17 Oeste 0 916.4 -- 26
2020-09-02 16:00:00 25.1 7 Norte 21 Oeste 0 916.6 -- 28
2020-09-02 15:00:00 24.6 6 Sur 17 Nordeste 0 916.8 -- 31
2020-09-02 14:00:00 22.3 9 Este 16 Norte 0 917.3 -- 32
2020-09-02 13:00:00 21.1 6 Norte 16 Noroeste 0 917.6 -- 35
2020-09-02 12:00:00 19.7 6 Nordeste 15 Noroeste 0 918 -- 40
2020-09-02 11:00:00 16.9 3 Sudeste 9 Oeste 0 918 -- 53
2020-09-02 10:00:00 14 3 Sudoeste 6 Sudoeste 0 917.6 -- 62
2020-09-02 09:00:00 10.4 3 Sudeste 6 Sudeste 0 917.8 -- 69
2020-09-02 08:00:00 6.5 4 Sudeste 7 Sudeste 0 917.4 -- 80
2020-09-02 07:00:00 7 4 Sudeste 5 Sudeste 0 917 -- 77
2020-09-02 06:00:00 8 4 Sur 6 Sur 0 916.4 -- 73
2020-09-02 05:00:00 9 5 Sudeste 6 Sudeste 0 916.4 -- 69
2020-09-02 04:00:00 10.2 2 Norte 5 Oeste 0 916.2 -- 68
2020-09-02 03:00:00 11.2 3 Oeste 6 Sudoeste 0 916.1 -- 65
2020-09-02 02:00:00 12.8 3 Oeste 8 Noroeste 0 916.1 -- 59
2020-09-02 01:00:00 14.5 4 Norte 15 Nordeste 0 915.9 -- 54
2020-09-02 00:00:00 16.2 13 Nordeste 29 Norte 0 915.8 -- 51
2020-09-01 23:00:00 17.1 3 Norte 10 Noroeste 0 915.3 -- 37
2020-09-01 22:00:00 18.6 5 Norte 21 Nordeste 0 914.7 -- 33
2020-09-01 21:00:00 19.8 11 Nordeste 21 Nordeste 0 914 -- 30
2020-09-01 20:00:00 21.1 13 Nordeste 26 Nordeste 0 913.5 -- 26
2020-09-01 19:00:00 22.5 13 Nordeste 23 Nordeste 0 913 -- 28
2020-09-01 18:00:00 22.8 10 Nordeste 25 Nordeste 0 913 -- 26
2020-09-01 17:00:00 23.7 6 Noroeste 18 Nordeste 0 913.1 -- 26
2020-09-01 16:00:00 22.5 8 Nordeste 17 Norte 0 913.6 -- 25
2020-09-01 15:00:00 21.1 5 Noroeste 10 Noroeste 0 914.4 -- 38
2020-09-01 14:00:00 20.4 4 Norte 9 Norte 0 914.7 -- 36
2020-09-01 13:00:00 20.5 4 Norte 12 Norte 0 914.8 -- 38
2020-09-01 12:00:00 19.2 4 Sur 13 Sudeste 0 915.4 -- 44
2020-09-01 11:00:00 16.3 3 Sudoeste 11 Sudoeste 0 916 -- 57
2020-09-01 10:00:00 15.2 5 Sudoeste 10 Oeste 0 915.8 -- 59
2020-09-01 09:00:00 11 3 Nordeste 4 Nordeste 0 915.9 -- 71
2020-09-01 08:00:00 9.3 2 Sudoeste 4 Sur 0 916 -- 75
2020-09-01 07:00:00 9.6 0 Calma 9 Sudeste 0 915.9 -- 71
2020-09-01 06:00:00 8.9 0 Calma 5 Oeste 0 915.9 -- 71
2020-09-01 05:00:00 9.4 3 Nordeste 5 Nordeste 0 916.3 -- 67
2020-09-01 04:00:00 9.1 2 Sur 5 Norte 0 916.9 -- 65
2020-09-01 03:00:00 10 3 Este 7 Sudeste 0 917.1 -- 59
2020-09-01 02:00:00 11.9 5 Sur 8 Sur 0 917.4 -- 53
2020-09-01 01:00:00 13.4 6 Noroeste 11 Norte 0 917.5 -- 51
2020-09-01 00:00:00 15.3 7 Nordeste 11 Nordeste 0 917.5 -- 42
2020-08-31 23:00:00 17.8 6 Nordeste 21 Este 0 917.3 -- 36
2020-08-31 22:00:00 18.9 16 Este 32 Este 0 916.8 -- 32
2020-08-31 21:00:00 20.2 12 Este 19 Este 0 916.3 -- 27
2020-08-31 20:00:00 22.5 9 Norte 18 Norte 0 916.1 -- 22
2020-08-31 19:00:00 25 5 Noroeste 17 Norte 0 916.1 -- 20
2020-08-31 18:00:00 24.6 8 Norte 24 Noroeste 0 916.1 -- 21
2020-08-31 17:00:00 24.8 6 Noroeste 22 Noroeste 0 916.6 -- 20
2020-08-31 16:00:00 24.1 8 Noroeste 19 Noroeste 0 917.2 -- 19
2020-08-31 15:00:00 23.4 6 Sur 21 Oeste 0 918 -- 21
2020-08-31 14:00:00 21.2 5 Norte 19 Oeste 0 918.7 -- 26
2020-08-31 13:00:00 19.1 7 Nordeste 15 Este 0 919.3 -- 35
2020-08-31 12:00:00 16.4 6 Nordeste 15 Sudeste 0 919.7 -- 45
2020-08-31 11:00:00 14.4 6 Sur 13 Sudeste 0 920.1 -- 55
2020-08-31 10:00:00 11.5 6 Sudeste 13 Sudeste 0 920 -- 68
2020-08-31 09:00:00 7.1 0 Calma 4 Nordeste 0 919.9 -- 79
2020-08-31 08:00:00 3.6 0 Calma 5 Sur 0 919.9 -- 90
2020-08-31 07:00:00 4.1 3 Sudeste 6 Sur 0 919.2 -- 85
2020-08-31 06:00:00 4.7 3 Nordeste 7 Sur 0 919.3 -- 87
2020-08-31 05:00:00 5.5 6 Sur 9 Sur 0 919.3 -- 85
2020-08-31 04:00:00 6.2 2 Sur 10 Sur 0 919.5 -- 80
2020-08-31 03:00:00 7.2 6 Sudeste 9 Sudeste 0 919.5 -- 79
2020-08-31 02:00:00 8.8 3 Sudoeste 9 Sudeste 0 919.6 -- 76
2020-08-31 01:00:00 10 3 Sudoeste 11 Norte 0 919.6 -- 73
2020-08-31 00:00:00 11.2 5 Norte 15 Norte 0 918.9 -- 68
2020-08-30 23:00:00 12.1 7 Norte 25 Noroeste 0 918.5 -- 65
2020-08-30 22:00:00 13.4 11 Norte 27 Nordeste 0 917.5 -- 57
2020-08-30 21:00:00 14.4 14 Nordeste 31 Nordeste 0 916.5 -- 52
2020-08-30 20:00:00 16 19 Nordeste 34 Nordeste 0 915.6 -- 47
2020-08-30 19:00:00 17.6 15 Nordeste 37 Nordeste 0 915.1 -- 43
2020-08-30 18:00:00 18.9 11 Norte 32 Norte 0 914.7 -- 36
2020-08-30 17:00:00 19.3 8 Norte 29 Nordeste 0 914.4 -- 33
2020-08-30 16:00:00 19.9 9 Norte 26 Norte 0 914.5 -- 27
2020-08-30 15:00:00 18.8 9 Noroeste 28 Nordeste 0 914.9 -- 31
2020-08-30 14:00:00 17.7 10 Norte 26 Norte 0 915.3 -- 35
2020-08-30 13:00:00 16.7 9 Noroeste 23 Norte 0 915.4 -- 41
2020-08-30 12:00:00 15 12 Noroeste 24 Noroeste 0 915.6 -- 45
2020-08-30 11:00:00 13.6 7 Noroeste 19 Noroeste 0 915.6 -- 53
2020-08-30 10:00:00 11.6 7 Norte 15 Norte 0 915 -- 62
2020-08-30 09:00:00 9.7 3 Sudeste 8 Sur 0 914.5 -- 66
2020-08-30 08:00:00 5.1 2 Nordeste 7 Sur 0 914.2 -- 82
2020-08-30 07:00:00 5.9 4 Sur 9 Sudeste 0 913.7 -- 76
2020-08-30 06:00:00 6.6 4 Sur 7 Sur 0 913.4 -- 76
2020-08-30 05:00:00 7.7 2 Este 4 Este 0 913.3 -- 75
2020-08-30 04:00:00 9.3 3 Oeste 9 Norte 0 913.1 -- 73
2020-08-30 03:00:00 10.3 3 Norte 15 Norte 0 913 -- 71
2020-08-30 02:00:00 11.4 6 Norte 27 Norte 0 912.7 -- 66
2020-08-30 01:00:00 12.4 8 Norte 18 Norte 0 912.4 -- 65
2020-08-30 00:00:00 12.8 6 Norte 24 Norte 0 911.9 -- 66
2020-08-29 23:00:00 13.6 4 Norte 17 Norte 0 911.4 -- 61
2020-08-29 22:00:00 13.9 7 Noroeste 34 Noroeste 0 910.5 -- 55
2020-08-29 21:00:00 15 8 Noroeste 25 Noroeste 0 909.5 -- 50
2020-08-29 20:00:00 16.6 10 Norte 40 Noroeste 0 908.7 -- 47
2020-08-29 19:00:00 18.7 10 Norte 30 Norte 0 907.5 -- 40
2020-08-29 18:00:00 19.5 10 Norte 26 Noroeste 0 907.1 -- 36
2020-08-29 17:00:00 19.9 10 Norte 26 Noroeste 0 907 -- 36
2020-08-29 16:00:00 20.5 14 Noroeste 35 Noroeste 0 907.2 -- 32
2020-08-29 15:00:00 21.1 8 Noroeste 27 Norte 0 907.4 -- 33
2020-08-29 14:00:00 19.4 10 Norte 28 Norte 0 907.7 -- 37
2020-08-29 13:00:00 17.8 9 Norte 27 Norte 0 908.2 -- 42
2020-08-29 12:00:00 16 6 Noroeste 17 Norte 0 908.4 -- 51
2020-08-29 11:00:00 14.7 5 Noroeste 14 Norte 0 908.7 -- 57
2020-08-29 10:00:00 13.4 6 Noroeste 16 Nordeste 0 908.6 -- 63
2020-08-29 09:00:00 12.7 6 Norte 13 Nordeste 0 908.4 -- 66
2020-08-29 08:00:00 12.4 4 Norte 16 Nordeste 0 908.3 -- 66
2020-08-29 07:00:00 12.7 9 Norte 25 Nordeste 0 908 -- 61
2020-08-29 06:00:00 12.9 9 Norte 25 Norte 0 908.2 -- 62
2020-08-29 05:00:00 12.9 6 Norte 22 Norte 0 908.4 -- 65
2020-08-29 04:00:00 13.1 9 Norte 30 Nordeste 0 908.7 -- 65
2020-08-29 03:00:00 13.4 14 Norte 32 Nordeste 0 908.7 -- 70
2020-08-29 02:00:00 13.5 9 Norte 27 Nordeste 0 909 -- 73
2020-08-29 01:00:00 13.7 9 Norte 31 Nordeste 0 909.1 -- 76
2020-08-29 00:00:00 13.8 10 Norte 31 Nordeste 0 909.1 -- 73
2020-08-28 23:00:00 14.4 16 Norte 33 Norte 0 908.9 -- 75
2020-08-28 22:00:00 15.4 11 Norte 26 Norte 0 908.8 -- 76
2020-08-28 21:00:00 17 16 Norte 32 Nordeste 0 908 -- 68
2020-08-28 20:00:00 18.6 14 Norte 31 Norte 0 908.3 -- 64
2020-08-28 19:00:00 21 15 Norte 36 Norte 0 907.8 -- 60
2020-08-28 18:00:00 24.5 18 Norte 35 Nordeste 0 907.3 -- 52
2020-08-28 17:00:00 27.7 14 Nordeste 34 Nordeste 0 906.9 -- 46
2020-08-28 16:00:00 28.6 6 Norte 23 Norte 0 907.5 -- 39
2020-08-28 15:00:00 28.8 7 Nordeste 23 Oeste 0 908.4 -- 41
2020-08-28 14:00:00 28 7 Noroeste 17 Norte 0 909.2 -- 45
2020-08-28 13:00:00 25.9 6 Norte 15 Norte 0 910.3 -- 51
2020-08-28 12:00:00 24.4 6 Oeste 23 Noroeste 0 911 -- 57
2020-08-28 11:00:00 22.8 8 Noroeste 18 Noroeste 0 911.4 -- 63
2020-08-28 10:00:00 20.6 5 Noroeste 19 Norte 0 911.6 -- 72
2020-08-28 09:00:00 18.3 7 Norte 16 Norte 0 912 -- 82
2020-08-28 08:00:00 15.5 4 Noroeste 9 Noroeste 0 911.9 -- 86
2020-08-28 07:00:00 16.2 2 Sudeste 5 Noroeste 0 911.9 -- 81
2020-08-28 06:00:00 17 4 Sur 7 Norte 0 912.2 -- 77
2020-08-28 05:00:00 17.5 3 Norte 6 Norte 0 913.1 -- 78
2020-08-28 04:00:00 18.6 0 Calma 5 Este 0 913.4 -- 71
2020-08-28 03:00:00 19.5 3 Norte 9 Norte 0 914.2 -- 70
2020-08-28 02:00:00 20 4 Sudoeste 9 Sudoeste 0 914.8 -- 68
2020-08-28 01:00:00 20.9 3 Norte 5 Noroeste 0 915 -- 60
2020-08-28 00:00:00 22.2 5 Oeste 11 Nordeste 0 915.3 -- 57
2020-08-27 23:00:00 24.3 4 Norte 9 Sudeste 0 915.5 -- 50
2020-08-27 22:00:00 26.4 2 Oeste 22 Este 0 915.3 -- 44
2020-08-27 21:00:00 28.3 17 Este 29 Este 0 915 -- 39
2020-08-27 20:00:00 30.9 16 Este 27 Este 0 914.8 -- 30
2020-08-27 19:00:00 32.4 15 Este 27 Nordeste 0 915 -- 27
2020-08-27 18:00:00 32.8 14 Nordeste 27 Nordeste 0 915.6 -- 27
2020-08-27 17:00:00 33.2 12 Nordeste 22 Nordeste 0 915.9 -- 26
2020-08-27 16:00:00 33.9 9 Noroeste 23 Noroeste 0 916.6 -- 23
2020-08-27 15:00:00 33.5 6 Sur 15 Noroeste 0 917.5 -- 23
2020-08-27 14:00:00 32.3 6 Oeste 18 Norte 0 918 -- 30
2020-08-27 13:00:00 30.1 6 Oeste 11 Noroeste 0 918.7 -- 32
2020-08-27 12:00:00 27.6 5 Oeste 12 Oeste 0 919.3 -- 42
2020-08-27 11:00:00 24.9 3 Sudoeste 8 Sudoeste 0 919.6 -- 51
2020-08-27 10:00:00 21.4 3 Sudoeste 6 Sudoeste 0 919.7 -- 65
2020-08-27 09:00:00 18.3 2 Nordeste 5 Nordeste 0 919.7 -- 73
2020-08-27 08:00:00 14.9 2 Noroeste 4 Oeste 0 919.7 -- 84
2020-08-27 07:00:00 15.6 0 Calma 6 Nordeste 0 919.5 -- 81
2020-08-27 06:00:00 16.1 3 Oeste 6 Oeste 0 919.4 -- 82
2020-08-27 05:00:00 17 2 Nordeste 6 Noroeste 0 919.8 -- 78
2020-08-27 04:00:00 18.2 0 Calma 7 Noroeste 0 920.1 -- 72
2020-08-27 03:00:00 19.2 2 Noroeste 5 Sudeste 0 920.4 -- 67
2020-08-27 02:00:00 20.4 3 Norte 6 Norte 0 920.5 -- 63
2020-08-27 01:00:00 22.4 3 Este 7 Norte 0 920.5 -- 54
2020-08-27 00:00:00 23.5 5 Norte 9 Noroeste 0 920.6 -- 51
2020-08-26 23:00:00 24.5 4 Norte 9 Norte 0 920.5 -- 45
2020-08-26 22:00:00 26 4 Noroeste 14 Nordeste 0 919.7 -- 46
2020-08-26 21:00:00 28.9 8 Este 22 Este 0 918.7 -- 35
2020-08-26 20:00:00 31.5 12 Este 26 Este 0 918.2 -- 31
2020-08-26 19:00:00 32.7 14 Nordeste 33 Este 0 918 -- 28
2020-08-26 18:00:00 33.7 14 Este 28 Nordeste 0 918 -- 26
2020-08-26 17:00:00 33.6 20 Nordeste 32 Nordeste 0 918.4 -- 27
2020-08-26 16:00:00 34.6 7 Norte 23 Norte 0 918.6 -- 24
2020-08-26 15:00:00 34.2 12 Norte 23 Noroeste 0 918.8 -- 26
2020-08-26 14:00:00 33.4 9 Nordeste 17 Norte 0 919 -- 24
2020-08-26 13:00:00 32.2 6 Norte 15 Norte 0 919.5 -- 27
2020-08-26 12:00:00 29.1 4 Oeste 8 Noroeste 0 919.9 -- 42
2020-08-26 11:00:00 25.1 4 Oeste 9 Sur 0 919.9 -- 55
2020-08-26 10:00:00 22.1 3 Sudoeste 7 Sur 0 919.9 -- 64
2020-08-26 09:00:00 18.7 3 Sur 8 Sur 0 919.7 -- 76
2020-08-26 08:00:00 14.6 4 Sur 6 Sudeste 0 919.7 -- 83
2020-08-26 07:00:00 15.1 3 Oeste 6 Sudeste 0 919.5 -- 85
2020-08-26 06:00:00 15.8 2 Sur 5 Noroeste 0 919.5 -- 81
2020-08-26 05:00:00 16.8 2 Noroeste 4 Noroeste 0 919.4 -- 77
2020-08-26 04:00:00 18 0 Calma 5 Norte 0 919.3 -- 72
2020-08-26 03:00:00 19.7 5 Nordeste 9 Nordeste 0 919.2 -- 64
2020-08-26 02:00:00 20.1 2 Sudoeste 12 Nordeste 0 919.1 -- 68
2020-08-26 01:00:00 21.7 4 Sudeste 7 Sudeste 0 918.8 -- 60
2020-08-26 00:00:00 22.8 4 Nordeste 14 Sudeste 0 918.5 -- 53
2020-08-25 23:00:00 24.6 4 Oeste 9 Sudeste 0 918 -- 45
2020-08-25 22:00:00 26.5 5 Norte 27 Este 0 917.3 -- 42
2020-08-25 21:00:00 28.6 19 Este 31 Este 0 916.2 -- 36
2020-08-25 20:00:00 30.9 24 Este 38 Este 0 915.8 -- 32
2020-08-25 19:00:00 33.3 11 Nordeste 21 Nordeste 0 915.7 -- 27
2020-08-25 18:00:00 34.7 8 Oeste 25 Noroeste 0 915.7 -- 20
2020-08-25 17:00:00 34.7 8 Noroeste 24 Oeste 0 915.7 -- 20
2020-08-25 16:00:00 34.1 10 Noroeste 25 Noroeste 0 916 -- 21
2020-08-25 15:00:00 33.4 7 Noroeste 20 Oeste 0 916.5 -- 23
2020-08-25 14:00:00 32.4 4 Nordeste 15 Sudoeste 0 916.9 -- 28
2020-08-25 13:00:00 30.5 5 Sudoeste 12 Sudoeste 0 917.3 -- 35
2020-08-25 12:00:00 28.4 3 Sudoeste 10 Sur 0 917.6 -- 44
2020-08-25 11:00:00 25.7 5 Sudeste 14 Sur 0 917.6 -- 56
2020-08-25 10:00:00 22.1 3 Sudoeste 8 Sudoeste 0 917.5 -- 70
2020-08-25 09:00:00 20.7 4 Sur 12 Sudeste 0 917.4 -- 78
2020-08-25 08:00:00 14.7 6 Sudeste 9 Sudeste 0 917.2 -- 90
2020-08-25 07:00:00 14.3 0 Calma 4 Sur 0 917 -- 83
2020-08-25 06:00:00 14.6 0 Calma 4 Nordeste 0 916.8 -- 80
2020-08-25 05:00:00 15.2 3 Oeste 3 Oeste 0 917 -- 78
2020-08-25 04:00:00 16.1 2 Sudoeste 4 Sur 0 916.9 -- 74
2020-08-25 03:00:00 16.6 0 Calma 5 Oeste 0 916.9 -- 71
2020-08-25 02:00:00 17.5 3 Oeste 5 Nordeste 0 917.2 -- 70
2020-08-25 01:00:00 19 2 Norte 12 Este 0 917.3 -- 60
2020-08-25 00:00:00 20.6 5 Este 13 Este 0 917.2 -- 54
2020-08-24 23:00:00 22.2 5 Sudeste 22 Este 0 917.1 -- 49
2020-08-24 22:00:00 23.3 17 Este 25 Este 0 916.6 -- 45
2020-08-24 21:00:00 25 10 Este 20 Nordeste 0 916.2 -- 41
2020-08-24 20:00:00 27 16 Este 24 Este 0 915.9 -- 37
2020-08-24 19:00:00 28.4 12 Este 27 Nordeste 0 916.1 -- 34
2020-08-24 18:00:00 28.6 13 Nordeste 27 Nordeste 0 915.9 -- 34
2020-08-24 17:00:00 29.2 13 Este 23 Este 0 916.3 -- 33
2020-08-24 16:00:00 29.9 6 Noroeste 14 Noroeste 0 916.7 -- 32
2020-08-24 15:00:00 29 4 Oeste 14 Noroeste 0 917.5 -- 34
2020-08-24 14:00:00 27.3 7 Noroeste 17 Noroeste 0 918 -- 43
2020-08-24 13:00:00 25.9 6 Noroeste 12 Oeste 0 918.5 -- 49
2020-08-24 12:00:00 23.4 3 Noroeste 10 Oeste 0 919.2 -- 48
2020-08-24 11:00:00 20.7 5 Noroeste 12 Noroeste 0 919.6 -- 49
2020-08-24 10:00:00 17.8 6 Noroeste 12 Noroeste 0 919.9 -- 61
2020-08-24 09:00:00 14.7 5 Noroeste 10 Norte 0 920 -- 72
2020-08-24 08:00:00 11.6 3 Norte 6 Norte 0 919.6 -- 83
2020-08-24 07:00:00 11.5 2 Noroeste 6 Sudeste 0 919.3 -- 84
2020-08-24 06:00:00 11.6 3 Norte 8 Norte 0 919.4 -- 84
2020-08-24 05:00:00 11.8 3 Nordeste 5 Nordeste 0 919.5 -- 84
2020-08-24 04:00:00 12.9 0 Calma 6 Nordeste 0 919.9 -- 81
2020-08-24 03:00:00 14 2 Sudoeste 5 Norte 0 919.9 -- 75
2020-08-24 02:00:00 14.8 4 Norte 6 Norte 0 920.3 -- 72
2020-08-24 01:00:00 16.5 2 Oeste 6 Noroeste 0 920.4 -- 64
2020-08-24 00:00:00 18 5 Norte 12 Norte 0 920.4 -- 59